Time;durP1;ratioP1;P1;durP2;ratioP2;P2;SDS_P1;SDS_P2;PMS_P1;PMS_P2;Temp;Humidity;BMP_temperature;BMP_pressure;BME280_temperature;BME280_humidity;BME280_pressure;Samples;Min_cycle;Max_cycle;Signal;HPM_P1;HPM_P2
2021/06/19 00:00:14;;;;;;;9.77;6.03;;;;;;;26.09;54.47;100107.50;5015988;28;20652;-60
2021/06/19 00:02:41;;;;;;;14.10;6.20;;;;;;;26.02;54.51;100119.22;5007990;28;23091;-61
2021/06/19 00:05:09;;;;;;;10.52;5.97;;;;;;;25.98;55.05;100123.31;5006331;28;20061;-61
2021/06/19 00:07:36;;;;;;;11.35;5.40;;;;;;;25.94;54.87;100132.84;5014595;28;20812;-62
2021/06/19 00:10:04;;;;;;;10.00;6.00;;;;;;;25.88;55.28;100131.69;5018051;28;20045;-60
2021/06/19 00:12:31;;;;;;;15.10;5.60;;;;;;;25.84;55.51;100133.03;5014199;28;20058;-59
2021/06/19 00:14:58;;;;;;;10.15;5.68;;;;;;;25.79;56.08;100144.44;5013625;28;20050;-61
2021/06/19 00:17:24;;;;;;;17.98;6.57;;;;;;;25.76;56.27;100149.38;5012611;28;20050;-61
2021/06/19 00:19:51;;;;;;;17.58;6.55;;;;;;;25.73;56.81;100152.44;4997836;28;20049;-61
2021/06/19 00:22:17;;;;;;;15.55;6.15;;;;;;;25.66;57.33;100163.13;5012881;28;20053;-60
2021/06/19 00:24:44;;;;;;;13.63;6.70;;;;;;;25.62;58.02;100166.38;5013033;28;20272;-61
2021/06/19 00:27:10;;;;;;;9.23;5.97;;;;;;;25.60;57.86;100169.22;5017484;28;20061;-61
2021/06/19 00:29:37;;;;;;;12.20;6.45;;;;;;;25.60;57.96;100173.81;5016548;28;20054;-61
2021/06/19 00:32:04;;;;;;;13.80;6.28;;;;;;;25.56;57.95;100167.03;5017570;28;20157;-61
2021/06/19 00:34:30;;;;;;;10.27;6.00;;;;;;;25.53;57.76;100160.94;5015681;28;20045;-61
2021/06/19 00:36:57;;;;;;;15.05;6.35;;;;;;;25.54;57.80;100167.19;5016262;28;20681;-62
2021/06/19 00:39:23;;;;;;;12.25;6.65;;;;;;;25.53;57.81;100166.34;5013305;28;20049;-62
2021/06/19 00:41:50;;;;;;;10.38;5.75;;;;;;;25.53;57.85;100160.09;5015481;28;20077;-62
2021/06/19 00:44:20;;;;;;;12.10;6.25;;;;;;;25.55;57.64;100165.34;5011087;28;20053;-60
2021/06/19 00:47:04;;;;;;;15.18;7.03;;;;;;;25.52;58.18;100161.09;5017760;28;20042;-62
2021/06/19 00:49:31;;;;;;;11.30;6.28;;;;;;;25.49;57.78;100161.47;5015298;28;20061;-61
2021/06/19 00:51:57;;;;;;;11.93;5.90;;;;;;;25.46;58.12;100162.66;5016709;28;20719;-61
2021/06/19 00:54:24;;;;;;;9.45;6.13;;;;;;;25.45;58.56;100165.53;5018669;28;20053;-62
2021/06/19 00:56:51;;;;;;;12.52;6.25;;;;;;;25.41;57.98;100156.06;5017119;28;20053;-62
2021/06/19 00:59:17;;;;;;;11.45;6.15;;;;;;;25.39;57.82;100160.81;5015359;28;20351;-61
2021/06/19 01:01:44;;;;;;;9.57;5.93;;;;;;;25.34;58.48;100152.38;5016506;28;20052;-61
2021/06/19 01:04:11;;;;;;;10.63;6.07;;;;;;;25.32;58.47;100155.25;5018563;28;20461;-62
2021/06/19 01:06:37;;;;;;;10.27;5.53;;;;;;;25.32;58.45;100157.09;5016512;28;20049;-61
2021/06/19 01:09:09;;;;;;;9.88;6.30;;;;;;;25.31;58.54;100158.97;5017991;28;20408;-61
2021/06/19 01:11:37;;;;;;;9.10;5.78;;;;;;;25.26;58.50;100161.34;5007531;28;20315;-61
2021/06/19 01:14:05;;;;;;;12.93;6.15;;;;;;;25.22;58.79;100165.41;5020610;28;20049;-60
2021/06/19 01:16:33;;;;;;;12.90;6.15;;;;;;;25.18;58.57;100174.91;5008946;28;20049;-61
2021/06/19 01:19:00;;;;;;;10.20;6.40;;;;;;;25.14;58.99;100163.56;5012424;28;20057;-61
2021/06/19 01:21:29;;;;;;;12.48;6.13;;;;;;;25.10;58.95;100167.63;5020092;28;20053;-61
2021/06/19 01:23:57;;;;;;;11.32;6.45;;;;;;;25.06;59.30;100171.69;5013655;28;20049;-61
2021/06/19 01:26:26;;;;;;;11.25;6.70;;;;;;;25.06;59.53;100165.44;5018345;28;20105;-60
2021/06/19 01:28:53;;;;;;;11.80;6.60;;;;;;;;;;5011164;28;20424;-61
2021/06/19 01:31:20;;;;;;;17.08;7.22;;;;;;;25.04;59.84;100170.16;5012551;28;20056;-61
2021/06/19 01:33:49;;;;;;;11.82;6.28;;;;;;;25.03;60.01;100165.75;5016545;28;20057;-61
2021/06/19 01:36:18;;;;;;;14.18;6.95;;;;;;;25.02;59.65;100169.50;5012427;28;20053;-61
2021/06/19 01:38:50;;;;;;;10.30;7.25;;;;;;;24.99;60.19;100172.56;5010134;28;20091;-62
2021/06/19 01:41:18;;;;;;;13.10;6.97;;;;;;;24.95;60.28;100185.59;5009244;28;20045;-61
2021/06/19 01:43:46;;;;;;;9.93;6.25;;;;;;;24.91;59.90;100188.75;5007123;28;20164;-61
2021/06/19 01:46:13;;;;;;;11.40;7.50;;;;;;;24.86;60.52;100192.00;5026027;28;20049;-61
2021/06/19 01:48:40;;;;;;;10.95;6.60;;;;;;;24.82;60.61;100180.66;5013919;28;20080;-61
2021/06/19 01:51:11;;;;;;;11.57;6.47;;;;;;;24.78;60.56;100184.69;5017745;28;20049;-61
2021/06/19 01:53:39;;;;;;;11.90;7.00;;;;;;;24.70;60.82;100186.56;5016722;28;20041;-61
2021/06/19 01:56:06;;;;;;;17.55;6.90;;;;;;;24.65;61.09;100187.06;5019186;28;20044;-61
2021/06/19 01:58:34;;;;;;;13.75;7.60;;;;;;;24.60;61.34;100194.84;4994515;28;20037;-61
2021/06/19 02:01:04;;;;;;;14.80;6.85;;;;;;;24.52;61.54;100197.53;5013046;28;20493;-60
2021/06/19 02:03:30;;;;;;;12.32;7.20;;;;;;;24.50;62.08;100201.44;5010390;28;20049;-61
2021/06/19 02:05:57;;;;;;;12.40;7.10;;;;;;;24.43;62.43;100210.19;5015585;28;20064;-61
2021/06/19 02:08:24;;;;;;;14.70;7.72;;;;;;;24.42;62.84;100213.06;5013451;28;20041;-61
2021/06/19 02:10:50;;;;;;;14.80;8.25;;;;;;;24.36;63.43;100211.88;5013198;28;20053;-61
2021/06/19 02:13:17;;;;;;;17.30;8.73;;;;;;;24.29;63.64;100210.84;5006116;28;20307;-61
2021/06/19 02:15:46;;;;;;;14.68;8.00;;;;;;;24.20;63.87;100208.25;5024981;28;20054;-58
2021/06/19 02:18:14;;;;;;;14.17;7.93;;;;;;;24.16;63.91;100217.69;5017058;28;20056;-62
2021/06/19 02:20:41;;;;;;;16.70;8.30;;;;;;;24.07;64.11;100214.97;5023428;28;20045;-61
2021/06/19 02:23:07;;;;;;;13.10;7.82;;;;;;;24.03;64.14;100210.03;5022253;28;20052;-62
2021/06/19 02:25:36;;;;;;;14.95;8.32;;;;;;;23.99;64.39;100209.50;5010036;28;20148;-60
2021/06/19 02:28:09;;;;;;;12.77;7.30;;;;;;;23.97;64.61;100206.13;5017249;28;20103;-61
2021/06/19 02:30:42;;;;;;;11.30;7.65;;;;;;;23.99;64.43;100200.56;5008615;28;20053;-62
2021/06/19 02:33:09;;;;;;;15.98;8.20;;;;;;;24.00;64.20;100205.81;5022151;28;20056;-60
2021/06/19 02:35:38;;;;;;;10.68;8.00;;;;;;;24.03;64.07;100202.78;5011501;28;20053;-60
2021/06/19 02:38:06;;;;;;;13.05;6.97;;;;;;;24.08;63.81;100197.69;5005533;28;20365;-60
2021/06/19 02:40:34;;;;;;;16.70;7.68;;;;;;;24.08;63.69;100213.94;5010271;28;20046;-61
2021/06/19 02:43:01;;;;;;;12.00;7.40;;;;;;;24.10;63.57;100220.03;5005498;28;20053;-61
2021/06/19 02:45:28;;;;;;;14.70;7.72;;;;;;;24.12;63.75;100218.03;5008261;28;20064;-60
2021/06/19 02:47:57;;;;;;;12.10;7.88;;;;;;;24.14;63.51;100218.72;5018327;28;20041;-59
2021/06/19 02:50:28;;;;;;;14.13;7.35;;;;;;;24.18;63.59;100219.22;5009350;28;20049;-60
2021/06/19 02:52:55;;;;;;;17.13;6.95;;;;;;;24.19;63.45;100212.81;5010407;28;20049;-60
2021/06/19 02:55:25;;;;;;;14.15;8.00;;;;;;;24.21;63.46;100212.66;5016592;28;20046;-60
2021/06/19 02:57:51;;;;;;;13.35;8.23;;;;;;;24.18;63.42;100212.97;5008353;28;20873;-59
2021/06/19 03:00:20;;;;;;;11.18;8.13;;;;;;;24.17;63.88;100205.88;5013109;28;20537;-62
2021/06/19 03:02:48;;;;;;;24.13;8.63;;;;;;;24.14;64.12;100199.75;5008414;28;20053;-60
2021/06/19 03:05:17;;;;;;;12.80;7.82;;;;;;;24.09;64.17;100193.16;5003226;28;20056;-60
2021/06/19 03:07:45;;;;;;;14.25;7.45;;;;;;;24.07;64.70;100197.91;5006239;28;20081;-60
2021/06/19 03:10:14;;;;;;;14.80;8.80;;;;;;;24.02;64.81;100203.78;5006408;28;20068;-59
2021/06/19 03:12:41;;;;;;;13.85;8.07;;;;;;;23.98;64.90;100202.41;5012735;28;20049;-59
2021/06/19 03:15:10;;;;;;;17.45;8.60;;;;;;;23.94;65.28;100206.44;5000766;28;20053;-60
2021/06/19 03:17:37;;;;;;;12.73;7.53;;;;;;;23.93;65.49;100220.97;5006990;28;20057;-60
2021/06/19 03:20:05;;;;;;;13.45;7.65;;;;;;;23.87;65.58;100218.09;5014774;28;20523;-59
2021/06/19 03:22:47;;;;;;;14.25;7.93;;;;;;;23.83;65.97;100222.97;5007876;28;20053;-60
2021/06/19 03:25:22;;;;;;;13.80;7.93;;;;;;;23.81;66.23;100227.69;5016413;28;20045;-61
2021/06/19 03:27:53;;;;;;;11.48;8.55;;;;;;;23.81;66.25;100233.09;5019323;28;20050;-61
2021/06/19 03:30:22;;;;;;;15.93;8.80;;;;;;;23.85;66.47;100231.75;5011419;28;20075;-61
2021/06/19 03:32:49;;;;;;;12.23;8.40;;;;;;;23.86;66.48;100240.72;5012281;28;20059;-60
2021/06/19 03:35:18;;;;;;;12.07;8.48;;;;;;;23.86;66.40;100233.47;5003199;28;20432;-60
2021/06/19 03:37:46;;;;;;;15.02;8.25;;;;;;;23.87;66.44;100237.88;5012200;28;20057;-60
2021/06/19 03:40:15;;;;;;;14.57;8.55;;;;;;;23.90;66.38;100245.66;5001873;28;20053;-63
2021/06/19 03:42:43;;;;;;;12.43;8.80;;;;;;;23.91;66.62;100233.84;5005916;28;20652;-61
2021/06/19 03:45:10;;;;;;;13.77;7.95;;;;;;;23.92;66.67;100240.94;5009091;28;20107;-60
2021/06/19 03:47:39;;;;;;;14.38;8.82;;;;;;;23.93;66.53;100231.78;5008590;28;20041;-61
2021/06/19 03:50:10;;;;;;;10.75;8.55;;;;;;;23.90;66.59;100234.84;5009356;28;20274;-61
2021/06/19 03:52:37;;;;;;;13.77;8.98;;;;;;;23.86;66.62;100225.34;5007892;28;20128;-60
2021/06/19 03:55:06;;;;;;;15.75;8.80;;;;;;;23.85;66.82;100241.72;5008517;28;20081;-60
2021/06/19 03:57:34;;;;;;;13.32;9.25;;;;;;;23.84;66.84;100249.00;5008130;28;20042;-59
2021/06/19 04:00:01;;;;;;;13.05;9.35;;;;;;;23.83;67.06;100241.03;5000408;28;20045;-60
2021/06/19 04:02:27;;;;;;;17.02;8.52;;;;;;;23.80;67.10;100242.22;5007210;28;20080;-59
2021/06/19 04:04:54;;;;;;;14.75;9.02;;;;;;;23.82;67.21;100242.91;5009134;28;22672;-61
2021/06/19 04:07:20;;;;;;;16.27;9.63;;;;;;;23.80;67.42;100242.22;5016165;28;20080;-60
2021/06/19 04:09:49;;;;;;;11.50;9.07;;;;;;;23.81;67.23;100243.06;5013802;28;20045;-59
2021/06/19 04:12:16;;;;;;;13.90;8.90;;;;;;;23.75;67.05;100250.81;5013051;28;20053;-60
2021/06/19 04:14:46;;;;;;;17.00;9.18;;;;;;;23.74;67.33;100249.13;5019387;28;20053;-60
2021/06/19 04:17:12;;;;;;;11.93;8.73;;;;;;;23.76;67.72;100257.06;5015415;28;20058;-62
2021/06/19 04:19:39;;;;;;;14.77;8.85;;;;;;;23.76;67.75;100254.38;5019927;28;20298;-60
2021/06/19 04:22:07;;;;;;;11.82;8.77;;;;;;;23.78;67.72;100250.47;5022365;28;20513;-61
2021/06/19 04:24:38;;;;;;;14.18;8.82;;;;;;;23.82;68.04;100261.81;5010611;28;20045;-61
2021/06/19 04:27:06;;;;;;;13.45;9.43;;;;;;;23.81;67.42;100265.53;5019537;28;20095;-61
2021/06/19 04:29:33;;;;;;;19.85;9.25;;;;;;;23.77;67.73;100265.00;5009328;28;20076;-61
2021/06/19 04:32:00;;;;;;;12.15;8.73;;;;;;;23.78;68.15;100264.00;5015415;28;20556;-60
2021/06/19 04:34:27;;;;;;;10.95;8.85;;;;;;;23.81;68.52;100275.50;5016046;28;20045;-61
2021/06/19 04:36:54;;;;;;;19.60;9.23;;;;;;;23.82;68.19;100279.91;5012462;28;20053;-61
2021/06/19 04:39:21;;;;;;;16.73;10.07;;;;;;;23.83;68.51;100287.84;5018176;28;20057;-61
2021/06/19 04:46:45;;;;;;;15.27;9.48;;;;;;;23.84;67.72;100294.13;5023100;28;20061;-61
2021/06/19 04:49:12;;;;;;;16.35;9.57;;;;;;;23.88;67.79;100295.50;5009851;28;21776;-61
2021/06/19 04:51:39;;;;;;;13.85;9.30;;;;;;;23.90;67.76;100294.34;5019729;28;20599;-61
2021/06/19 04:54:06;;;;;;;18.00;9.43;;;;;;;23.91;67.96;100295.19;5012487;28;20084;-61
2021/06/19 04:56:33;;;;;;;13.20;9.32;;;;;;;23.92;67.47;100297.75;5008663;28;20083;-61
2021/06/19 04:59:01;;;;;;;16.98;9.57;;;;;;;23.93;67.44;100294.00;5015362;28;20057;-61
2021/06/19 05:01:28;;;;;;;14.52;9.25;;;;;;;23.92;67.87;100300.44;5016407;28;20505;-61
2021/06/19 05:03:55;;;;;;;13.10;9.75;;;;;;;23.91;67.54;100306.84;5019063;28;20052;-61
2021/06/19 05:06:21;;;;;;;13.75;9.30;;;;;;;23.95;67.40;100301.94;5014718;28;20540;-61
2021/06/19 05:08:48;;;;;;;13.50;9.27;;;;;;;23.99;67.42;100306.88;5010145;28;20049;-61
2021/06/19 05:11:14;;;;;;;11.82;9.27;;;;;;;24.05;67.05;100302.72;5011392;28;20055;-61
2021/06/19 05:13:41;;;;;;;16.45;9.18;;;;;;;24.10;66.79;100305.75;5007152;28;20092;-62
2021/06/19 05:16:07;;;;;;;16.25;9.98;;;;;;;24.17;66.95;100304.13;5004165;28;20049;-60
2021/06/19 05:18:34;;;;;;;12.07;8.80;;;;;;;24.19;66.87;100303.97;5007058;28;20394;-61
2021/06/19 05:21:00;;;;;;;14.65;8.68;;;;;;;24.18;66.88;100308.53;5004101;28;20422;-60
2021/06/19 05:23:27;;;;;;;13.60;8.70;;;;;;;24.21;66.31;100310.91;5006968;28;20049;-62
2021/06/19 05:25:53;;;;;;;13.57;8.70;;;;;;;24.26;66.18;100313.13;5002092;28;20053;-62
2021/06/19 05:28:20;;;;;;;15.23;8.52;;;;;;;24.29;66.01;100315.53;4999143;28;20045;-61
2021/06/19 05:30:46;;;;;;;13.70;8.50;;;;;;;24.31;66.29;100311.66;5008126;28;20065;-61
2021/06/19 05:33:13;;;;;;;12.85;8.50;;;;;;;24.35;66.88;100314.88;5011843;28;20076;-61
2021/06/19 05:35:39;;;;;;;12.85;8.80;;;;;;;24.40;66.56;100312.53;5013636;28;20057;-61
2021/06/19 05:38:06;;;;;;;11.57;8.60;;;;;;;24.48;66.26;100317.97;5014537;28;20061;-61
2021/06/19 05:40:33;;;;;;;12.80;8.30;;;;;;;24.54;65.75;100325.47;5015828;28;20057;-60
2021/06/19 05:42:59;;;;;;;11.75;7.70;;;;;;;24.60;64.70;100323.94;5014596;28;20061;-60
2021/06/19 05:45:26;;;;;;;14.45;7.47;;;;;;;24.68;64.86;100313.16;5019230;28;20103;-61
2021/06/19 05:47:53;;;;;;;13.48;8.20;;;;;;;24.75;63.67;100315.03;5013327;28;20051;-61
2021/06/19 05:50:19;;;;;;;10.95;7.00;;;;;;;24.84;63.75;100318.63;5016302;28;20452;-62
2021/06/19 05:52:46;;;;;;;13.60;7.55;;;;;;;24.92;63.07;100328.59;5015388;28;20061;-61
2021/06/19 05:55:14;;;;;;;9.93;6.30;;;;;;;25.00;62.38;100329.53;5007443;28;20069;-61
2021/06/19 05:57:41;;;;;;;12.55;6.95;;;;;;;25.13;62.61;100332.59;5015791;28;20041;-62
2021/06/19 06:00:08;;;;;;;11.50;6.65;;;;;;;25.22;61.26;100327.16;5009816;28;20053;-62
2021/06/19 06:02:34;;;;;;;8.75;5.93;;;;;;;25.35;60.52;100330.22;5011257;28;20436;-61
2021/06/19 06:05:01;;;;;;;8.57;5.50;;;;;;;25.48;58.63;100326.00;5019774;28;20498;-62
2021/06/19 06:07:27;;;;;;;9.88;5.30;;;;;;;25.70;57.56;100331.78;5011606;28;20500;-61
2021/06/19 06:09:54;;;;;;;9.02;5.32;;;;;;;25.95;56.59;100325.31;5016058;28;20038;-62
2021/06/19 06:12:20;;;;;;;8.70;5.05;;;;;;;26.32;55.42;100323.88;5008721;28;20047;-61
2021/06/19 06:14:47;;;;;;;6.80;5.18;;;;;;;26.77;55.04;100324.00;5009755;28;20148;-62
2021/06/19 06:17:14;;;;;;;6.32;4.72;;;;;;;27.23;52.30;100315.94;5011375;28;20143;-63
2021/06/19 06:19:40;;;;;;;7.53;4.28;;;;;;;27.56;50.48;100319.22;5008374;28;20054;-62
2021/06/19 06:22:06;;;;;;;5.75;4.25;;;;;;;27.94;50.12;100322.78;5013420;28;20053;-61
2021/06/19 06:24:33;;;;;;;6.80;4.20;;;;;;;28.42;48.35;100320.59;5007884;28;20088;-62
2021/06/19 06:27:00;;;;;;;14.35;4.70;;;;;;;28.77;47.55;100327.97;5009317;28;20060;-62
2021/06/19 06:29:27;;;;;;;8.07;4.15;;;;;;;29.12;46.61;100325.44;5018693;28;20053;-61
2021/06/19 06:31:54;;;;;;;8.98;4.07;;;;;;;29.41;46.48;100325.34;5009201;28;20068;-61
2021/06/19 06:34:23;;;;;;;8.40;3.80;;;;;;;29.67;45.81;100327.47;5018557;28;20132;-61
2021/06/19 06:36:51;;;;;;;7.43;3.58;;;;;;;29.87;43.87;100324.88;5010218;28;20068;-61
2021/06/19 06:39:18;;;;;;;9.73;4.13;;;;;;;29.84;43.95;100328.84;5009450;28;22108;-62
2021/06/19 06:41:46;;;;;;;6.25;3.83;;;;;;;30.09;43.89;100333.88;5016882;28;20049;-62
2021/06/19 06:44:12;;;;;;;8.15;4.05;;;;;;;30.14;43.37;100332.25;5014117;28;20053;-61
2021/06/19 06:46:39;;;;;;;6.63;3.78;;;;;;;30.25;44.06;100328.09;5010878;28;20144;-62
2021/06/19 06:49:06;;;;;;;5.45;3.20;;;;;;;30.39;42.13;100329.00;5012384;28;20071;-61
2021/06/19 06:51:35;;;;;;;5.82;3.22;;;;;;;30.50;41.83;100336.66;5009193;28;20160;-61
2021/06/19 06:54:02;;;;;;;4.70;3.15;;;;;;;30.48;42.38;100334.13;5006364;28;20519;-61
2021/06/19 06:56:28;;;;;;;7.43;4.13;;;;;;;30.68;42.88;100340.56;5006147;28;20139;-62
2021/06/19 06:58:55;;;;;;;7.00;4.20;;;;;;;30.85;43.53;100327.34;5017604;28;20049;-61
2021/06/19 07:01:22;;;;;;;6.90;4.53;;;;;;;31.05;42.27;100332.88;5009461;28;20057;-61
2021/06/19 07:03:50;;;;;;;6.03;3.88;;;;;;;31.07;41.33;100327.22;5004786;28;20066;-62
2021/06/19 07:06:16;;;;;;;8.90;4.05;;;;;;;30.85;42.34;100334.75;5017002;28;20049;-61
2021/06/19 07:08:42;;;;;;;9.10;4.25;;;;;;;30.72;41.82;100340.13;5009065;28;20041;-62
2021/06/19 07:11:13;;;;;;;7.53;4.10;;;;;;;30.67;42.51;100338.03;5020052;28;20050;-61
2021/06/19 07:13:40;;;;;;;10.57;4.50;;;;;;;30.52;41.79;100337.31;5014122;28;20073;-61
2021/06/19 07:16:07;;;;;;;7.85;3.97;;;;;;;30.56;42.20;100344.06;5017835;28;20069;-61
2021/06/19 07:18:34;;;;;;;7.22;4.22;;;;;;;30.91;43.67;100337.47;5013480;28;20053;-61
2021/06/19 07:21:01;;;;;;;4.80;3.35;;;;;;;31.14;41.64;100339.91;5012783;28;20497;-62
2021/06/19 07:23:29;;;;;;;4.68;3.00;;;;;;;31.24;40.84;100339.50;5010906;28;20123;-61
2021/06/19 07:25:56;;;;;;;5.30;2.85;;;;;;;31.32;40.51;100337.41;5009053;28;20049;-61
2021/06/19 07:28:23;;;;;;;5.75;3.00;;;;;;;31.49;41.03;100336.97;5014674;28;20045;-61
2021/06/19 07:30:50;;;;;;;8.13;2.90;;;;;;;31.55;39.12;100337.00;5017968;28;20064;-61
2021/06/19 07:33:16;;;;;;;4.32;2.65;;;;;;;31.48;38.40;100340.81;5009662;28;20064;-61
2021/06/19 07:35:43;;;;;;;3.80;2.55;;;;;;;31.43;37.93;100341.41;5016552;28;20075;-62
2021/06/19 07:38:10;;;;;;;5.25;3.00;;;;;;;31.35;39.23;100342.44;5013116;28;20057;-60
2021/06/19 07:40:36;;;;;;;6.75;3.00;;;;;;;31.39;39.08;100341.00;5017833;28;20053;-61
2021/06/19 07:43:03;;;;;;;6.55;3.08;;;;;;;31.44;39.29;100339.53;5024102;28;20072;-61
2021/06/19 07:45:29;;;;;;;9.57;3.22;;;;;;;31.39;39.02;100337.41;5019291;28;20497;-61
2021/06/19 07:47:56;;;;;;;5.90;3.65;;;;;;;31.09;39.47;100328.69;5018526;28;20049;-60
2021/06/19 07:50:22;;;;;;;6.25;3.58;;;;;;;31.04;40.55;100340.25;5011355;28;20045;-62
2021/06/19 07:52:49;;;;;;;6.78;3.90;;;;;;;31.02;39.68;100336.88;5015545;28;20536;-63
2021/06/19 07:55:16;;;;;;;7.72;4.18;;;;;;;31.03;40.50;100335.81;5016943;28;20049;-62
2021/06/19 07:57:42;;;;;;;7.80;4.00;;;;;;;31.14;40.80;100336.31;5010552;28;20157;-61
2021/06/19 08:00:09;;;;;;;6.68;3.75;;;;;;;31.21;39.77;100334.44;5015272;28;20485;-62
2021/06/19 08:02:36;;;;;;;5.32;3.63;;;;;;;30.88;41.21;100329.69;5008069;28;20049;-61
2021/06/19 08:05:02;;;;;;;7.88;3.70;;;;;;;30.77;40.42;100334.91;5009967;28;20049;-62
2021/06/19 08:07:29;;;;;;;11.48;3.95;;;;;;;30.74;41.41;100332.56;5001002;28;20053;-61
2021/06/19 08:09:55;;;;;;;7.22;4.15;;;;;;;30.95;41.80;100338.75;5013366;28;20177;-61
2021/06/19 08:12:22;;;;;;;6.07;3.50;;;;;;;31.19;40.06;100325.56;5015604;28;20504;-61
2021/06/19 08:14:49;;;;;;;5.57;3.80;;;;;;;31.20;40.18;100324.53;5016369;28;20049;-62
2021/06/19 08:17:19;;;;;;;7.00;4.00;;;;;;;31.14;38.71;100322.66;5020474;28;20049;-61
2021/06/19 08:19:46;;;;;;;5.57;3.60;;;;;;;31.23;40.57;100319.50;5012561;28;20041;-62
2021/06/19 08:22:13;;;;;;;8.80;3.53;;;;;;;31.35;38.60;100323.28;5018625;28;20088;-62
2021/06/19 08:24:40;;;;;;;7.68;3.65;;;;;;;31.24;39.61;100318.44;5013699;28;20063;-62
2021/06/19 08:27:07;;;;;;;5.50;3.28;;;;;;;31.33;39.62;100313.59;5019798;28;20216;-63
2021/06/19 08:29:37;;;;;;;7.43;3.47;;;;;;;31.42;38.71;100311.53;5022331;28;20053;-61
2021/06/19 08:32:04;;;;;;;5.25;3.72;;;;;;;31.39;38.18;100315.50;5018325;28;20061;-62
2021/06/19 08:34:31;;;;;;;5.28;3.50;;;;;;;31.38;38.22;100308.34;5013189;28;20086;-61
2021/06/19 08:36:57;;;;;;;5.65;3.40;;;;;;;31.34;38.42;100318.03;5013936;28;21723;-62
2021/06/19 08:39:24;;;;;;;5.68;4.00;;;;;;;31.13;38.47;100316.34;5013637;28;20045;-62
2021/06/19 08:41:55;;;;;;;4.75;3.70;;;;;;;30.97;38.58;100314.78;5015996;28;20052;-61
2021/06/19 08:44:23;;;;;;;6.13;3.83;;;;;;;31.01;39.50;100316.03;5014259;28;20049;-65
2021/06/19 08:47:03;;;;;;;4.82;3.30;;;;;;;31.17;38.87;100314.03;5020091;28;20052;-61
2021/06/19 08:49:30;;;;;;;6.30;3.10;;;;;;;31.21;38.77;100301.59;5014827;28;20048;-63
2021/06/19 08:51:58;;;;;;;5.75;3.55;;;;;;;31.14;39.33;100307.06;5024347;28;20051;-61
2021/06/19 08:54:26;;;;;;;5.85;3.45;;;;;;;31.10;38.92;100303.06;5020095;28;20531;-60
2021/06/19 08:56:53;;;;;;;5.53;3.40;;;;;;;31.11;39.01;100304.75;5015817;28;20069;-61
2021/06/19 08:59:21;;;;;;;4.43;3.15;;;;;;;31.18;37.74;100307.47;5022463;28;20045;-61
2021/06/19 09:01:47;;;;;;;7.47;3.30;;;;;;;31.12;37.79;100300.13;5019039;28;20477;-61
2021/06/19 09:04:14;;;;;;;6.30;3.35;;;;;;;31.04;37.52;100299.22;5018011;28;20053;-62
2021/06/19 09:06:43;;;;;;;6.43;3.60;;;;;;;30.90;39.11;100310.34;5017720;28;20049;-63
2021/06/19 09:09:14;;;;;;;4.25;3.50;;;;;;;30.91;39.50;100295.63;5019400;28;20041;-61
2021/06/19 09:11:44;;;;;;;5.78;3.67;;;;;;;31.00;39.24;100295.25;5025823;28;20061;-61
2021/06/19 09:14:19;;;;;;;8.45;3.92;;;;;;;31.05;39.70;100294.59;5022227;28;20056;-61
2021/06/19 09:16:58;;;;;;;4.32;3.50;;;;;;;31.04;40.38;100288.28;5020932;28;20079;-59
2021/06/19 09:19:26;;;;;;;5.70;3.88;;;;;;;31.14;38.94;100296.13;5022727;28;20080;-61
2021/06/19 09:22:19;;;;;;;4.50;3.60;;;;;;;31.09;38.62;100290.41;5017232;28;20060;-61
2021/06/19 09:24:52;;;;;;;5.95;3.30;;;;;;;31.02;38.67;100290.38;5014094;28;20108;-60
2021/06/19 09:27:42;;;;;;;7.18;3.40;;;;;;;30.98;39.29;100282.81;5018363;28;20059;-61
2021/06/19 09:30:13;;;;;;;7.53;3.53;;;;;;;30.85;38.81;100271.84;5023224;28;20045;-62
2021/06/19 09:33:05;;;;;;;4.97;3.70;;;;;;;30.66;39.19;100273.47;5018788;28;20057;-62
2021/06/19 09:35:37;;;;;;;6.47;3.83;;;;;;;30.38;40.11;100265.31;5024565;28;20053;-60
2021/06/19 09:38:13;;;;;;;4.38;3.50;;;;;;;30.36;40.86;100264.72;5019724;28;20072;-60
2021/06/19 09:40:47;;;;;;;7.70;3.83;;;;;;;30.33;41.00;100260.50;5019768;28;20072;-60
2021/06/19 09:43:22;;;;;;;4.85;3.78;;;;;;;30.27;41.38;100261.28;5018616;28;20152;-60
2021/06/19 09:46:05;;;;;;;5.95;3.60;;;;;;;30.17;40.63;100249.91;5019832;28;20053;-61
2021/06/19 09:48:35;;;;;;;4.40;3.75;;;;;;;30.14;41.75;100255.78;5016774;28;20052;-60
2021/06/19 09:51:24;;;;;;;6.97;3.95;;;;;;;30.23;41.90;100253.69;5020225;28;20711;-60
2021/06/19 09:54:03;;;;;;;7.85;4.25;;;;;;;30.37;41.33;100251.91;5016693;28;20091;-61
2021/06/19 09:56:42;;;;;;;5.65;3.97;;;;;;;30.41;41.34;100258.63;5017836;28;20056;-60
2021/06/19 09:59:17;;;;;;;6.55;3.60;;;;;;;30.48;41.04;100254.88;5015555;28;20046;-60
2021/06/19 10:01:44;;;;;;;6.82;3.88;;;;;;;30.53;40.66;100248.81;5025203;28;20080;-60
2021/06/19 10:04:15;;;;;;;6.20;3.90;;;;;;;30.58;40.85;100246.31;5017562;28;20060;-61
2021/06/19 10:06:42;;;;;;;7.47;4.20;;;;;;;30.64;40.34;100250.97;5016996;28;20045;-61
2021/06/19 10:09:10;;;;;;;5.35;3.90;;;;;;;30.73;39.99;100243.41;5019269;28;20133;-61
2021/06/19 10:11:38;;;;;;;8.43;4.53;;;;;;;30.72;40.70;100244.47;5020381;28;20068;-60
2021/06/19 10:14:08;;;;;;;4.72;4.15;;;;;;;30.66;40.98;100236.06;5015385;28;21010;-60
2021/06/19 10:16:40;;;;;;;6.10;4.07;;;;;;;30.66;40.88;100237.94;4997864;28;20061;-60
2021/06/19 10:19:08;;;;;;;4.43;3.70;;;;;;;30.74;41.05;100239.63;5015470;28;20046;-60
2021/06/19 10:21:36;;;;;;;7.90;3.92;;;;;;;30.82;39.64;100243.03;5015793;28;20050;-60
2021/06/19 10:24:04;;;;;;;7.90;4.10;;;;;;;30.89;39.52;100235.66;5016683;28;20453;-61
2021/06/19 10:26:31;;;;;;;6.18;3.90;;;;;;;31.00;39.84;100232.34;5018208;28;20045;-61
2021/06/19 10:29:02;;;;;;;8.98;4.28;;;;;;;31.05;40.06;100215.28;5015249;28;20041;-61
2021/06/19 10:31:37;;;;;;;7.20;3.88;;;;;;;31.05;39.85;100221.59;5010601;28;20188;-60
2021/06/19 10:34:18;;;;;;;7.00;4.20;;;;;;;31.02;39.09;100216.53;5020555;28;20465;-61
2021/06/19 10:36:44;;;;;;;8.02;4.20;;;;;;;30.93;38.84;100203.28;5021058;28;20072;-61
2021/06/19 10:39:11;;;;;;;4.72;3.65;;;;;;;30.95;39.89;100204.78;5021304;28;20063;-60
2021/06/19 10:41:50;;;;;;;7.78;4.47;;;;;;;31.01;39.29;100214.84;5016926;28;20104;-60
2021/06/19 10:44:55;;;;;;;6.03;3.97;;;;;;;30.99;39.39;100205.19;5020291;28;20065;-61
2021/06/19 10:47:23;;;;;;;5.95;4.65;;;;;;;30.95;39.19;100191.09;5018172;28;20061;-62
2021/06/19 10:49:51;;;;;;;6.82;3.83;;;;;;;30.97;39.92;100189.00;5015532;28;20049;-61
2021/06/19 10:52:27;;;;;;;8.10;3.97;;;;;;;30.94;40.47;100175.75;5016028;28;20055;-61
2021/06/19 10:55:09;;;;;;;6.63;3.80;;;;;;;30.98;39.58;100178.91;5016992;28;20053;-60
2021/06/19 10:57:44;;;;;;;12.95;4.55;;;;;;;31.12;39.39;100171.56;5016121;28;20079;-60
2021/06/19 11:00:58;;;;;;;11.40;4.72;;;;;;;31.26;38.52;100165.88;5018750;28;20060;-62
2021/06/19 11:03:45;;;;;;;8.80;4.57;;;;;;;31.33;37.71;100157.66;4963962;28;20054;-61
2021/06/19 11:06:27;;;;;;;8.38;4.47;;;;;;;31.40;38.41;100163.97;5019821;28;20238;-61
2021/06/19 11:09:01;;;;;;;7.07;3.78;;;;;;;31.41;37.46;100160.16;5022687;28;20059;-61
2021/06/19 11:11:49;;;;;;;6.10;3.58;;;;;;;31.32;37.94;100150.53;5013346;28;20054;-61
2021/06/19 11:14:43;;;;;;;15.82;4.82;;;;;;;31.33;38.74;100153.00;5017887;28;20041;-60
2021/06/19 11:17:10;;;;;;;5.80;3.70;;;;;;;31.29;37.19;100151.78;5006970;28;20881;-61
2021/06/19 11:19:44;;;;;;;5.40;4.25;;;;;;;31.21;38.00;100146.50;5021058;28;20041;-60
2021/06/19 11:22:55;;;;;;;8.80;4.13;;;;;;;31.23;38.38;100149.88;5015572;28;20103;-62
2021/06/19 11:25:52;;;;;;;8.32;4.80;;;;;;;31.12;37.75;100150.53;5017390;28;20524;-60
2021/06/19 11:28:21;;;;;;;7.20;3.92;;;;;;;31.26;38.19;100138.53;5012559;28;20682;-60
2021/06/19 11:30:56;;;;;;;6.70;4.25;;;;;;;31.43;37.14;100130.72;5016812;28;20053;-60
2021/06/19 11:33:25;;;;;;;6.32;4.43;;;;;;;31.60;37.41;100133.81;5015845;28;21051;-61
2021/06/19 11:36:14;;;;;;;6.22;3.65;;;;;;;31.71;36.85;100123.06;5016429;28;20050;-60